sensor_id;sensor_type;location;lat;lon;timestamp;temperature;humidity
20658;DHT22;10488;50.846;4.078;2023-04-03T00:01:38;1.90;99.90
20658;DHT22;10488;50.846;4.078;2023-04-03T00:04:05;1.90;99.90
20658;DHT22;10488;50.846;4.078;2023-04-03T00:06:31;1.90;99.90
20658;DHT22;10488;50.846;4.078;2023-04-03T00:08:58;1.90;99.90
20658;DHT22;10488;50.846;4.078;2023-04-03T00:11:23;1.80;99.90
20658;DHT22;10488;50.846;4.078;2023-04-03T00:13:50;1.90;99.90
20658;DHT22;10488;50.846;4.078;2023-04-03T00:16:17;1.90;99.90
20658;DHT22;10488;50.846;4.078;2023-04-03T00:18:43;1.80;99.90
20658;DHT22;10488;50.846;4.078;2023-04-03T00:21:12;1.70;99.90
20658;DHT22;10488;50.846;4.078;2023-04-03T00:23:38;1.70;99.90
20658;DHT22;10488;50.846;4.078;2023-04-03T00:26:04;1.70;99.90
20658;DHT22;10488;50.846;4.078;2023-04-03T00:28:30;1.80;99.90
20658;DHT22;10488;50.846;4.078;2023-04-03T00:30:56;1.80;99.90
20658;DHT22;10488;50.846;4.078;2023-04-03T00:33:21;1.70;99.90
20658;DHT22;10488;50.846;4.078;2023-04-03T00:35:48;1.70;99.90
20658;DHT22;10488;50.846;4.078;2023-04-03T00:38:14;1.60;99.90
20658;DHT22;10488;50.846;4.078;2023-04-03T00:40:44;1.70;99.90
20658;DHT22;10488;50.846;4.078;2023-04-03T00:43:19;1.60;99.90
20658;DHT22;10488;50.846;4.078;2023-04-03T00:45:50;1.70;99.90
20658;DHT22;10488;50.846;4.078;2023-04-03T00:48:36;1.70;99.90
20658;DHT22;10488;50.846;4.078;2023-04-03T00:51:04;1.60;99.90
20658;DHT22;10488;50.846;4.078;2023-04-03T00:53:37;1.60;99.90
20658;DHT22;10488;50.846;4.078;2023-04-03T00:56:06;1.40;99.90
20658;DHT22;10488;50.846;4.078;2023-04-03T00:58:41;1.40;99.90
20658;DHT22;10488;50.846;4.078;2023-04-03T01:01:12;1.50;99.90
20658;DHT22;10488;50.846;4.078;2023-04-03T01:03:40;1.50;99.90
20658;DHT22;10488;50.846;4.078;2023-04-03T01:06:06;1.50;99.90
20658;DHT22;10488;50.846;4.078;2023-04-03T01:08:32;1.40;99.90
20658;DHT22;10488;50.846;4.078;2023-04-03T01:10:58;1.40;99.90
20658;DHT22;10488;50.846;4.078;2023-04-03T01:13:29;1.30;99.90
20658;DHT22;10488;50.846;4.078;2023-04-03T01:15:56;1.40;99.90
20658;DHT22;10488;50.846;4.078;2023-04-03T01:18:24;1.40;99.90
20658;DHT22;10488;50.846;4.078;2023-04-03T01:26:23;1.30;99.90
20658;DHT22;10488;50.846;4.078;2023-04-03T01:28:49;1.30;99.90
20658;DHT22;10488;50.846;4.078;2023-04-03T01:31:18;1.20;99.90
20658;DHT22;10488;50.846;4.078;2023-04-03T01:33:45;1.20;99.90
20658;DHT22;10488;50.846;4.078;2023-04-03T01:36:18;1.20;99.90
20658;DHT22;10488;50.846;4.078;2023-04-03T01:38:47;1.30;99.90
20658;DHT22;10488;50.846;4.078;2023-04-03T01:41:14;1.30;99.90
20658;DHT22;10488;50.846;4.078;2023-04-03T01:43:43;1.20;99.90
20658;DHT22;10488;50.846;4.078;2023-04-03T01:46:09;1.20;99.90
20658;DHT22;10488;50.846;4.078;2023-04-03T01:48:34;1.20;99.90
20658;DHT22;10488;50.846;4.078;2023-04-03T01:51:03;1.20;99.90
20658;DHT22;10488;50.846;4.078;2023-04-03T01:53:28;1.30;99.90
20658;DHT22;10488;50.846;4.078;2023-04-03T01:55:55;1.30;99.90
20658;DHT22;10488;50.846;4.078;2023-04-03T01:58:21;1.30;99.90
20658;DHT22;10488;50.846;4.078;2023-04-03T02:00:48;1.30;99.90
20658;DHT22;10488;50.846;4.078;2023-04-03T02:03:13;1.30;99.90
20658;DHT22;10488;50.846;4.078;2023-04-03T02:05:41;1.30;99.90
20658;DHT22;10488;50.846;4.078;2023-04-03T02:08:09;1.30;99.90
20658;DHT22;10488;50.846;4.078;2023-04-03T02:10:36;1.30;99.90
20658;DHT22;10488;50.846;4.078;2023-04-03T02:13:02;1.30;99.90
20658;DHT22;10488;50.846;4.078;2023-04-03T02:15:28;1.20;99.90
20658;DHT22;10488;50.846;4.078;2023-04-03T02:17:55;1.20;99.90
20658;DHT22;10488;50.846;4.078;2023-04-03T02:20:21;1.20;99.90
20658;DHT22;10488;50.846;4.078;2023-04-03T02:22:49;1.10;99.90
20658;DHT22;10488;50.846;4.078;2023-04-03T02:25:17;1.10;99.90
20658;DHT22;10488;50.846;4.078;2023-04-03T02:27:43;1.00;99.90
20658;DHT22;10488;50.846;4.078;2023-04-03T02:30:09;1.10;99.90
20658;DHT22;10488;50.846;4.078;2023-04-03T02:32:42;1.00;99.90
20658;DHT22;10488;50.846;4.078;2023-04-03T02:35:10;1.00;99.90
20658;DHT22;10488;50.846;4.078;2023-04-03T02:37:42;1.00;99.90
20658;DHT22;10488;50.846;4.078;2023-04-03T02:40:08;1.00;99.90
20658;DHT22;10488;50.846;4.078;2023-04-03T02:42:36;1.00;99.90
20658;DHT22;10488;50.846;4.078;2023-04-03T02:45:02;1.10;99.90
20658;DHT22;10488;50.846;4.078;2023-04-03T02:47:28;1.20;99.90
20658;DHT22;10488;50.846;4.078;2023-04-03T02:49:54;1.20;99.90
20658;DHT22;10488;50.846;4.078;2023-04-03T02:52:25;1.10;99.90
20658;DHT22;10488;50.846;4.078;2023-04-03T02:54:52;1.20;99.90
20658;DHT22;10488;50.846;4.078;2023-04-03T02:57:18;1.30;99.90
20658;DHT22;10488;50.846;4.078;2023-04-03T02:59:46;1.30;99.90
20658;DHT22;10488;50.846;4.078;2023-04-03T03:02:11;1.20;99.90
20658;DHT22;10488;50.846;4.078;2023-04-03T03:04:37;1.10;99.90
20658;DHT22;10488;50.846;4.078;2023-04-03T03:07:04;1.00;99.90
20658;DHT22;10488;50.846;4.078;2023-04-03T03:09:29;1.00;99.90
20658;DHT22;10488;50.846;4.078;2023-04-03T03:11:56;0.90;99.90
20658;DHT22;10488;50.846;4.078;2023-04-03T03:14:22;0.90;99.90
20658;DHT22;10488;50.846;4.078;2023-04-03T03:16:49;1.00;99.90
20658;DHT22;10488;50.846;4.078;2023-04-03T03:19:15;1.00;99.90
20658;DHT22;10488;50.846;4.078;2023-04-03T03:21:42;1.00;99.90
20658;DHT22;10488;50.846;4.078;2023-04-03T03:24:07;0.90;99.90
20658;DHT22;10488;50.846;4.078;2023-04-03T03:26:33;0.90;99.90
20658;DHT22;10488;50.846;4.078;2023-04-03T03:29:00;0.90;99.90
20658;DHT22;10488;50.846;4.078;2023-04-03T03:31:25;0.80;99.90
20658;DHT22;10488;50.846;4.078;2023-04-03T03:33:52;0.80;99.90
20658;DHT22;10488;50.846;4.078;2023-04-03T03:36:20;0.80;99.90
20658;DHT22;10488;50.846;4.078;2023-04-03T03:38:47;0.70;99.90
20658;DHT22;10488;50.846;4.078;2023-04-03T03:41:14;0.70;99.90
20658;DHT22;10488;50.846;4.078;2023-04-03T03:43:39;0.70;99.90
20658;DHT22;10488;50.846;4.078;2023-04-03T03:46:05;0.70;99.90
20658;DHT22;10488;50.846;4.078;2023-04-03T03:48:34;0.70;99.90
20658;DHT22;10488;50.846;4.078;2023-04-03T03:51:01;0.70;99.90
20658;DHT22;10488;50.846;4.078;2023-04-03T03:53:29;0.70;99.90
20658;DHT22;10488;50.846;4.078;2023-04-03T03:55:55;0.70;99.90
20658;DHT22;10488;50.846;4.078;2023-04-03T03:58:20;0.70;99.90
20658;DHT22;10488;50.846;4.078;2023-04-03T04:00:52;0.70;99.90
20658;DHT22;10488;50.846;4.078;2023-04-03T04:03:19;0.60;99.90
20658;DHT22;10488;50.846;4.078;2023-04-03T04:05:46;0.60;99.90
20658;DHT22;10488;50.846;4.078;2023-04-03T04:08:11;0.60;99.90
20658;DHT22;10488;50.846;4.078;2023-04-03T04:10:37;0.60;99.90
20658;DHT22;10488;50.846;4.078;2023-04-03T04:13:03;0.70;99.90
20658;DHT22;10488;50.846;4.078;2023-04-03T04:15:29;0.70;99.90
20658;DHT22;10488;50.846;4.078;2023-04-03T04:17:55;0.60;99.90
20658;DHT22;10488;50.846;4.078;2023-04-03T04:20:20;0.60;99.90
20658;DHT22;10488;50.846;4.078;2023-04-03T04:22:46;0.60;99.90
20658;DHT22;10488;50.846;4.078;2023-04-03T04:25:13;0.60;99.90
20658;DHT22;10488;50.846;4.078;2023-04-03T04:27:38;0.60;99.90
20658;DHT22;10488;50.846;4.078;2023-04-03T04:30:07;0.60;99.90
20658;DHT22;10488;50.846;4.078;2023-04-03T04:32:32;0.60;99.90
20658;DHT22;10488;50.846;4.078;2023-04-03T04:34:58;0.50;99.90
20658;DHT22;10488;50.846;4.078;2023-04-03T04:37:25;0.50;99.90
20658;DHT22;10488;50.846;4.078;2023-04-03T04:39:50;0.50;99.90
20658;DHT22;10488;50.846;4.078;2023-04-03T04:42:16;0.50;99.90
20658;DHT22;10488;50.846;4.078;2023-04-03T04:44:42;0.40;99.90
20658;DHT22;10488;50.846;4.078;2023-04-03T04:47:07;0.40;99.90
20658;DHT22;10488;50.846;4.078;2023-04-03T04:49:33;0.40;99.90
20658;DHT22;10488;50.846;4.078;2023-04-03T04:52:00;0.40;99.90
20658;DHT22;10488;50.846;4.078;2023-04-03T04:54:26;0.40;99.90
20658;DHT22;10488;50.846;4.078;2023-04-03T04:56:52;0.40;99.90
20658;DHT22;10488;50.846;4.078;2023-04-03T04:59:19;0.40;99.90
20658;DHT22;10488;50.846;4.078;2023-04-03T05:01:44;0.50;99.90
20658;DHT22;10488;50.846;4.078;2023-04-03T05:04:12;0.50;99.90
20658;DHT22;10488;50.846;4.078;2023-04-03T05:06:39;0.50;99.90
20658;DHT22;10488;50.846;4.078;2023-04-03T05:09:05;0.50;99.90
20658;DHT22;10488;50.846;4.078;2023-04-03T05:11:31;0.50;99.90
20658;DHT22;10488;50.846;4.078;2023-04-03T05:13:59;0.50;99.90
20658;DHT22;10488;50.846;4.078;2023-04-03T05:16:25;0.50;99.90
20658;DHT22;10488;50.846;4.078;2023-04-03T05:18:50;0.50;99.90
20658;DHT22;10488;50.846;4.078;2023-04-03T05:21:16;0.50;99.90
20658;DHT22;10488;50.846;4.078;2023-04-03T05:23:43;0.50;99.90
20658;DHT22;10488;50.846;4.078;2023-04-03T05:26:09;0.60;99.90
20658;DHT22;10488;50.846;4.078;2023-04-03T05:28:36;0.60;99.90
20658;DHT22;10488;50.846;4.078;2023-04-03T05:31:02;0.60;99.90
20658;DHT22;10488;50.846;4.078;2023-04-03T05:33:27;0.70;99.90
20658;DHT22;10488;50.846;4.078;2023-04-03T05:35:54;0.80;99.90
20658;DHT22;10488;50.846;4.078;2023-04-03T05:38:20;0.80;99.90
20658;DHT22;10488;50.846;4.078;2023-04-03T05:40:46;0.90;99.90
20658;DHT22;10488;50.846;4.078;2023-04-03T05:43:11;1.10;99.90
20658;DHT22;10488;50.846;4.078;2023-04-03T05:45:37;1.30;99.90
20658;DHT22;10488;50.846;4.078;2023-04-03T05:48:03;1.40;99.90
20658;DHT22;10488;50.846;4.078;2023-04-03T05:50:31;1.50;99.90
20658;DHT22;10488;50.846;4.078;2023-04-03T05:52:58;1.60;99.90
20658;DHT22;10488;50.846;4.078;2023-04-03T05:55:24;1.80;99.90
20658;DHT22;10488;50.846;4.078;2023-04-03T05:57:51;2.20;99.90
20658;DHT22;10488;50.846;4.078;2023-04-03T06:00:17;2.60;99.90
20658;DHT22;10488;50.846;4.078;2023-04-03T06:02:48;3.40;99.90
20658;DHT22;10488;50.846;4.078;2023-04-03T06:05:14;4.10;99.90
20658;DHT22;10488;50.846;4.078;2023-04-03T06:07:40;4.90;99.90
20658;DHT22;10488;50.846;4.078;2023-04-03T06:10:06;5.40;99.90
20658;DHT22;10488;50.846;4.078;2023-04-03T06:12:33;5.90;99.90
20658;DHT22;10488;50.846;4.078;2023-04-03T06:14:58;6.30;99.90
20658;DHT22;10488;50.846;4.078;2023-04-03T06:17:24;6.90;99.90
20658;DHT22;10488;50.846;4.078;2023-04-03T06:19:49;7.40;99.90
20658;DHT22;10488;50.846;4.078;2023-04-03T06:22:15;7.50;99.90
20658;DHT22;10488;50.846;4.078;2023-04-03T06:24:41;8.10;99.90
20658;DHT22;10488;50.846;4.078;2023-04-03T06:27:07;7.90;99.90
20658;DHT22;10488;50.846;4.078;2023-04-03T06:29:33;7.80;99.90
20658;DHT22;10488;50.846;4.078;2023-04-03T06:31:59;8.20;99.90
20658;DHT22;10488;50.846;4.078;2023-04-03T06:34:24;8.80;99.90
20658;DHT22;10488;50.846;4.078;2023-04-03T06:36:51;9.90;99.90
20658;DHT22;10488;50.846;4.078;2023-04-03T06:39:20;10.00;99.90
20658;DHT22;10488;50.846;4.078;2023-04-03T06:41:47;10.00;99.90
20658;DHT22;10488;50.846;4.078;2023-04-03T06:44:13;9.80;99.90
20658;DHT22;10488;50.846;4.078;2023-04-03T06:46:41;10.90;99.90
20658;DHT22;10488;50.846;4.078;2023-04-03T06:49:08;12.00;99.90
20658;DHT22;10488;50.846;4.078;2023-04-03T06:51:34;11.60;99.90
20658;DHT22;10488;50.846;4.078;2023-04-03T06:54:02;10.90;99.90
20658;DHT22;10488;50.846;4.078;2023-04-03T06:56:29;10.80;99.90
20658;DHT22;10488;50.846;4.078;2023-04-03T06:58:56;10.90;99.90
20658;DHT22;10488;50.846;4.078;2023-04-03T07:01:24;11.30;99.90
20658;DHT22;10488;50.846;4.078;2023-04-03T07:03:52;11.90;99.90
20658;DHT22;10488;50.846;4.078;2023-04-03T07:06:18;10.60;99.90
20658;DHT22;10488;50.846;4.078;2023-04-03T07:08:45;10.80;99.90
20658;DHT22;10488;50.846;4.078;2023-04-03T07:11:12;9.60;99.90
20658;DHT22;10488;50.846;4.078;2023-04-03T07:13:38;10.20;99.90
20658;DHT22;10488;50.846;4.078;2023-04-03T07:16:04;9.80;99.90
20658;DHT22;10488;50.846;4.078;2023-04-03T07:18:32;10.20;99.90
20658;DHT22;10488;50.846;4.078;2023-04-03T07:20:58;10.50;99.90
20658;DHT22;10488;50.846;4.078;2023-04-03T07:23:24;10.60;99.90
20658;DHT22;10488;50.846;4.078;2023-04-03T07:25:51;9.90;99.90
20658;DHT22;10488;50.846;4.078;2023-04-03T07:28:18;9.80;99.90
20658;DHT22;10488;50.846;4.078;2023-04-03T07:30:49;9.70;99.90
20658;DHT22;10488;50.846;4.078;2023-04-03T07:33:16;10.10;99.90
20658;DHT22;10488;50.846;4.078;2023-04-03T07:35:43;9.80;99.90
20658;DHT22;10488;50.846;4.078;2023-04-03T07:38:09;9.90;99.90
20658;DHT22;10488;50.846;4.078;2023-04-03T07:40:35;10.50;99.90
20658;DHT22;10488;50.846;4.078;2023-04-03T07:43:01;10.70;99.90
20658;DHT22;10488;50.846;4.078;2023-04-03T07:45:28;10.60;99.90
20658;DHT22;10488;50.846;4.078;2023-04-03T07:47:54;10.80;99.90
20658;DHT22;10488;50.846;4.078;2023-04-03T07:50:21;10.60;99.90
20658;DHT22;10488;50.846;4.078;2023-04-03T07:52:47;10.50;99.90
20658;DHT22;10488;50.846;4.078;2023-04-03T07:55:13;10.50;99.90
20658;DHT22;10488;50.846;4.078;2023-04-03T07:57:39;10.50;99.90
20658;DHT22;10488;50.846;4.078;2023-04-03T08:00:06;10.90;99.90
20658;DHT22;10488;50.846;4.078;2023-04-03T08:02:32;10.80;99.90
20658;DHT22;10488;50.846;4.078;2023-04-03T08:04:58;10.30;99.90
20658;DHT22;10488;50.846;4.078;2023-04-03T08:07:25;10.10;99.90
20658;DHT22;10488;50.846;4.078;2023-04-03T08:09:51;9.80;99.90
20658;DHT22;10488;50.846;4.078;2023-04-03T08:12:17;10.10;99.90
20658;DHT22;10488;50.846;4.078;2023-04-03T08:14:43;9.90;99.90
20658;DHT22;10488;50.846;4.078;2023-04-03T08:17:09;10.40;99.90
20658;DHT22;10488;50.846;4.078;2023-04-03T08:19:37;10.20;99.90
20658;DHT22;10488;50.846;4.078;2023-04-03T08:22:03;10.30;99.90
20658;DHT22;10488;50.846;4.078;2023-04-03T08:24:31;9.80;99.90
20658;DHT22;10488;50.846;4.078;2023-04-03T08:26:57;9.90;99.90
20658;DHT22;10488;50.846;4.078;2023-04-03T08:29:23;10.30;99.90
20658;DHT22;10488;50.846;4.078;2023-04-03T08:31:49;10.50;99.90
20658;DHT22;10488;50.846;4.078;2023-04-03T08:34:16;10.40;99.90
20658;DHT22;10488;50.846;4.078;2023-04-03T08:36:42;10.10;99.90
20658;DHT22;10488;50.846;4.078;2023-04-03T08:39:08;10.60;99.90
20658;DHT22;10488;50.846;4.078;2023-04-03T08:41:39;10.30;99.90
20658;DHT22;10488;50.846;4.078;2023-04-03T08:49:26;9.90;99.90
20658;DHT22;10488;50.846;4.078;2023-04-03T08:51:54;10.40;99.90
20658;DHT22;10488;50.846;4.078;2023-04-03T08:54:53;9.40;99.90
20658;DHT22;10488;50.846;4.078;2023-04-03T08:57:40;10.60;99.90
20658;DHT22;10488;50.846;4.078;2023-04-03T09:00:20;10.60;99.90
20658;DHT22;10488;50.846;4.078;2023-04-03T09:02:51;10.50;99.90
20658;DHT22;10488;50.846;4.078;2023-04-03T09:05:20;9.90;99.90
20658;DHT22;10488;50.846;4.078;2023-04-03T09:07:52;10.60;99.90
20658;DHT22;10488;50.846;4.078;2023-04-03T09:10:27;10.80;99.90
20658;DHT22;10488;50.846;4.078;2023-04-03T09:13:09;10.30;99.90
20658;DHT22;10488;50.846;4.078;2023-04-03T09:15:35;10.00;99.90
20658;DHT22;10488;50.846;4.078;2023-04-03T09:18:15;10.20;99.90
20658;DHT22;10488;50.846;4.078;2023-04-03T09:23:31;10.50;99.90
20658;DHT22;10488;50.846;4.078;2023-04-03T09:26:02;9.80;99.90
20658;DHT22;10488;50.846;4.078;2023-04-03T09:28:34;9.60;99.90
20658;DHT22;10488;50.846;4.078;2023-04-03T09:31:00;9.40;99.90
20658;DHT22;10488;50.846;4.078;2023-04-03T09:33:28;9.30;99.90
20658;DHT22;10488;50.846;4.078;2023-04-03T09:35:55;9.20;99.90
20658;DHT22;10488;50.846;4.078;2023-04-03T09:38:22;9.40;99.90
20658;DHT22;10488;50.846;4.078;2023-04-03T09:41:34;9.20;99.90
20658;DHT22;10488;50.846;4.078;2023-04-03T09:43:37;9.10;99.90
20658;DHT22;10488;50.846;4.078;2023-04-03T09:48:59;9.30;99.90
20658;DHT22;10488;50.846;4.078;2023-04-03T09:51:27;8.90;99.90
20658;DHT22;10488;50.846;4.078;2023-04-03T09:53:57;9.00;99.90
20658;DHT22;10488;50.846;4.078;2023-04-03T09:56:26;9.10;99.90
20658;DHT22;10488;50.846;4.078;2023-04-03T09:59:13;9.10;99.90
20658;DHT22;10488;50.846;4.078;2023-04-03T10:01:42;9.10;99.90
20658;DHT22;10488;50.846;4.078;2023-04-03T10:06:52;9.20;99.90
20658;DHT22;10488;50.846;4.078;2023-04-03T10:09:26;9.10;99.90
20658;DHT22;10488;50.846;4.078;2023-04-03T10:12:11;9.20;99.90
20658;DHT22;10488;50.846;4.078;2023-04-03T10:14:54;9.40;99.90
20658;DHT22;10488;50.846;4.078;2023-04-03T10:20:17;9.20;99.90
20658;DHT22;10488;50.846;4.078;2023-04-03T10:25:42;9.30;99.90
20658;DHT22;10488;50.846;4.078;2023-04-03T10:36:42;9.60;99.90
20658;DHT22;10488;50.846;4.078;2023-04-03T10:44:11;10.00;99.90
20658;DHT22;10488;50.846;4.078;2023-04-03T10:49:56;9.90;99.90
20658;DHT22;10488;50.846;4.078;2023-04-03T10:55:52;10.20;99.90
20658;DHT22;10488;50.846;4.078;2023-04-03T10:57:58;10.10;99.90
20658;DHT22;10488;50.846;4.078;2023-04-03T11:00:45;10.10;99.90
20658;DHT22;10488;50.846;4.078;2023-04-03T11:05:45;10.40;99.90
20658;DHT22;10488;50.846;4.078;2023-04-03T11:08:27;10.30;99.90
20658;DHT22;10488;50.846;4.078;2023-04-03T11:10:58;10.30;99.90
20658;DHT22;10488;50.846;4.078;2023-04-03T11:13:33;10.30;99.90
20658;DHT22;10488;50.846;4.078;2023-04-03T11:15:59;10.00;99.90
20658;DHT22;10488;50.846;4.078;2023-04-03T11:18:52;10.10;99.90
20658;DHT22;10488;50.846;4.078;2023-04-03T11:21:29;10.00;99.90
20658;DHT22;10488;50.846;4.078;2023-04-03T11:23:57;10.30;99.90
20658;DHT22;10488;50.846;4.078;2023-04-03T11:26:29;10.60;99.90
20658;DHT22;10488;50.846;4.078;2023-04-03T11:28:59;10.90;99.90
20658;DHT22;10488;50.846;4.078;2023-04-03T11:34:36;10.50;99.90
20658;DHT22;10488;50.846;4.078;2023-04-03T11:37:15;10.70;99.90
20658;DHT22;10488;50.846;4.078;2023-04-03T11:39:51;10.70;99.90
20658;DHT22;10488;50.846;4.078;2023-04-03T11:42:25;10.70;99.90
20658;DHT22;10488;50.846;4.078;2023-04-03T11:48:02;10.70;99.90
20658;DHT22;10488;50.846;4.078;2023-04-03T12:00:53;10.80;99.90
20658;DHT22;10488;50.846;4.078;2023-04-03T12:08:38;10.40;99.90
20658;DHT22;10488;50.846;4.078;2023-04-03T12:16:07;10.90;99.90
20658;DHT22;10488;50.846;4.078;2023-04-03T12:21:24;11.00;99.90
20658;DHT22;10488;50.846;4.078;2023-04-03T12:26:41;11.10;99.90
20658;DHT22;10488;50.846;4.078;2023-04-03T12:29:21;11.10;99.90
20658;DHT22;10488;50.846;4.078;2023-04-03T12:40:38;11.00;99.90
20658;DHT22;10488;50.846;4.078;2023-04-03T12:45:50;11.20;99.90
20658;DHT22;10488;50.846;4.078;2023-04-03T12:48:21;11.20;99.90
20658;DHT22;10488;50.846;4.078;2023-04-03T12:50:49;11.10;99.90
20658;DHT22;10488;50.846;4.078;2023-04-03T12:53:23;11.20;99.90
20658;DHT22;10488;50.846;4.078;2023-04-03T12:55:57;11.40;99.90
20658;DHT22;10488;50.846;4.078;2023-04-03T12:58:42;11.30;99.90
20658;DHT22;10488;50.846;4.078;2023-04-03T13:01:14;11.00;99.90
20658;DHT22;10488;50.846;4.078;2023-04-03T13:03:45;11.20;99.90
20658;DHT22;10488;50.846;4.078;2023-04-03T13:06:27;11.20;99.90
20658;DHT22;10488;50.846;4.078;2023-04-03T13:08:57;11.20;99.90
20658;DHT22;10488;50.846;4.078;2023-04-03T13:11:24;10.90;99.90
20658;DHT22;10488;50.846;4.078;2023-04-03T13:14:00;10.90;99.90
20658;DHT22;10488;50.846;4.078;2023-04-03T13:16:27;11.10;99.90
20658;DHT22;10488;50.846;4.078;2023-04-03T13:18:54;11.20;99.90
20658;DHT22;10488;50.846;4.078;2023-04-03T13:21:37;10.80;99.90
20658;DHT22;10488;50.846;4.078;2023-04-03T13:24:04;10.60;99.90
20658;DHT22;10488;50.846;4.078;2023-04-03T13:26:31;10.80;99.90
20658;DHT22;10488;50.846;4.078;2023-04-03T13:29:06;10.90;99.90
20658;DHT22;10488;50.846;4.078;2023-04-03T13:31:34;10.90;99.90
20658;DHT22;10488;50.846;4.078;2023-04-03T13:36:45;11.20;99.90
20658;DHT22;10488;50.846;4.078;2023-04-03T13:41:42;11.00;99.90
20658;DHT22;10488;50.846;4.078;2023-04-03T13:44:17;10.80;99.90
20658;DHT22;10488;50.846;4.078;2023-04-03T13:46:43;10.90;99.90
20658;DHT22;10488;50.846;4.078;2023-04-03T13:51:56;11.10;99.90
20658;DHT22;10488;50.846;4.078;2023-04-03T13:54:32;11.30;99.90
20658;DHT22;10488;50.846;4.078;2023-04-03T13:56:58;11.20;99.90
20658;DHT22;10488;50.846;4.078;2023-04-03T13:59:31;11.30;99.90
20658;DHT22;10488;50.846;4.078;2023-04-03T14:04:56;11.40;99.90
20658;DHT22;10488;50.846;4.078;2023-04-03T14:07:25;11.30;99.90
20658;DHT22;10488;50.846;4.078;2023-04-03T14:09:52;11.40;99.90
20658;DHT22;10488;50.846;4.078;2023-04-03T14:12:32;11.50;99.90
20658;DHT22;10488;50.846;4.078;2023-04-03T14:15:01;11.30;99.90
20658;DHT22;10488;50.846;4.078;2023-04-03T14:17:27;11.20;99.90
20658;DHT22;10488;50.846;4.078;2023-04-03T14:19:54;11.20;99.90
20658;DHT22;10488;50.846;4.078;2023-04-03T14:22:30;11.40;99.90
20658;DHT22;10488;50.846;4.078;2023-04-03T14:24:56;11.30;99.90
20658;DHT22;10488;50.846;4.078;2023-04-03T14:27:25;11.30;99.90
20658;DHT22;10488;50.846;4.078;2023-04-03T14:29:53;11.30;99.90
20658;DHT22;10488;50.846;4.078;2023-04-03T14:32:21;11.30;99.90
20658;DHT22;10488;50.846;4.078;2023-04-03T14:34:48;11.20;99.90
20658;DHT22;10488;50.846;4.078;2023-04-03T14:37:17;11.20;99.90
20658;DHT22;10488;50.846;4.078;2023-04-03T14:39:44;11.20;99.90
20658;DHT22;10488;50.846;4.078;2023-04-03T14:42:15;11.10;99.90
20658;DHT22;10488;50.846;4.078;2023-04-03T14:44:41;11.20;99.90
20658;DHT22;10488;50.846;4.078;2023-04-03T14:47:15;11.30;99.90
20658;DHT22;10488;50.846;4.078;2023-04-03T14:49:42;11.30;99.90
20658;DHT22;10488;50.846;4.078;2023-04-03T14:52:29;11.40;99.90
20658;DHT22;10488;50.846;4.078;2023-04-03T14:54:56;11.30;99.90
20658;DHT22;10488;50.846;4.078;2023-04-03T14:57:24;11.40;99.90
20658;DHT22;10488;50.846;4.078;2023-04-03T14:59:51;11.30;99.90
20658;DHT22;10488;50.846;4.078;2023-04-03T15:02:30;11.10;99.90
20658;DHT22;10488;50.846;4.078;2023-04-03T15:04:58;10.90;99.90
20658;DHT22;10488;50.846;4.078;2023-04-03T15:07:26;10.90;99.90
20658;DHT22;10488;50.846;4.078;2023-04-03T15:09:53;11.10;99.90
20658;DHT22;10488;50.846;4.078;2023-04-03T15:12:22;11.20;99.90
20658;DHT22;10488;50.846;4.078;2023-04-03T15:14:47;11.20;99.90
20658;DHT22;10488;50.846;4.078;2023-04-03T15:17:22;11.20;99.90
20658;DHT22;10488;50.846;4.078;2023-04-03T15:19:48;11.10;99.90
20658;DHT22;10488;50.846;4.078;2023-04-03T15:22:19;11.10;99.90
20658;DHT22;10488;50.846;4.078;2023-04-03T15:24:45;11.30;99.90
20658;DHT22;10488;50.846;4.078;2023-04-03T15:27:12;11.10;99.90
20658;DHT22;10488;50.846;4.078;2023-04-03T15:29:40;11.10;99.90
20658;DHT22;10488;50.846;4.078;2023-04-03T15:32:08;11.20;99.90
20658;DHT22;10488;50.846;4.078;2023-04-03T15:34:35;11.10;99.90
20658;DHT22;10488;50.846;4.078;2023-04-03T15:37:01;11.10;99.90
20658;DHT22;10488;50.846;4.078;2023-04-03T15:39:27;10.90;99.90
20658;DHT22;10488;50.846;4.078;2023-04-03T15:41:53;11.00;99.90
20658;DHT22;10488;50.846;4.078;2023-04-03T15:44:20;10.90;99.90
20658;DHT22;10488;50.846;4.078;2023-04-03T15:46:47;11.00;99.90
20658;DHT22;10488;50.846;4.078;2023-04-03T15:49:14;11.10;99.90
20658;DHT22;10488;50.846;4.078;2023-04-03T15:51:40;11.20;99.90
20658;DHT22;10488;50.846;4.078;2023-04-03T15:54:06;11.30;99.90
20658;DHT22;10488;50.846;4.078;2023-04-03T15:56:32;11.10;99.90
20658;DHT22;10488;50.846;4.078;2023-04-03T15:58:57;11.10;99.90
20658;DHT22;10488;50.846;4.078;2023-04-03T16:01:23;11.10;99.90
20658;DHT22;10488;50.846;4.078;2023-04-03T16:03:49;10.90;99.90
20658;DHT22;10488;50.846;4.078;2023-04-03T16:06:15;10.80;99.90
20658;DHT22;10488;50.846;4.078;2023-04-03T16:08:42;10.80;99.90
20658;DHT22;10488;50.846;4.078;2023-04-03T16:11:08;10.70;99.90
20658;DHT22;10488;50.846;4.078;2023-04-03T16:13:34;10.80;99.90
20658;DHT22;10488;50.846;4.078;2023-04-03T16:16:00;10.80;99.90
20658;DHT22;10488;50.846;4.078;2023-04-03T16:18:28;10.90;99.90
20658;DHT22;10488;50.846;4.078;2023-04-03T16:20:54;11.00;99.90
20658;DHT22;10488;50.846;4.078;2023-04-03T16:23:20;11.10;99.90
20658;DHT22;10488;50.846;4.078;2023-04-03T16:25:46;11.00;99.90
20658;DHT22;10488;50.846;4.078;2023-04-03T16:28:16;10.90;99.90
20658;DHT22;10488;50.846;4.078;2023-04-03T16:30:46;10.80;99.90
20658;DHT22;10488;50.846;4.078;2023-04-03T16:33:13;10.70;99.90
20658;DHT22;10488;50.846;4.078;2023-04-03T16:35:39;10.60;99.90
20658;DHT22;10488;50.846;4.078;2023-04-03T16:38:05;10.70;99.90
20658;DHT22;10488;50.846;4.078;2023-04-03T16:40:31;10.70;99.90
20658;DHT22;10488;50.846;4.078;2023-04-03T16:42:59;10.70;99.90
20658;DHT22;10488;50.846;4.078;2023-04-03T16:45:24;10.70;99.90
20658;DHT22;10488;50.846;4.078;2023-04-03T16:47:50;10.70;99.90
20658;DHT22;10488;50.846;4.078;2023-04-03T16:50:16;10.70;99.90
20658;DHT22;10488;50.846;4.078;2023-04-03T16:52:42;10.90;99.90
20658;DHT22;10488;50.846;4.078;2023-04-03T16:55:09;10.80;99.90
20658;DHT22;10488;50.846;4.078;2023-04-03T16:57:34;10.70;99.90
20658;DHT22;10488;50.846;4.078;2023-04-03T17:00:00;10.60;99.90
20658;DHT22;10488;50.846;4.078;2023-04-03T17:02:26;10.50;99.90
20658;DHT22;10488;50.846;4.078;2023-04-03T17:04:53;10.40;99.90
20658;DHT22;10488;50.846;4.078;2023-04-03T17:07:19;10.50;99.90
20658;DHT22;10488;50.846;4.078;2023-04-03T17:09:45;10.40;99.90
20658;DHT22;10488;50.846;4.078;2023-04-03T17:12:11;10.40;99.90
20658;DHT22;10488;50.846;4.078;2023-04-03T17:14:37;10.20;99.90
20658;DHT22;10488;50.846;4.078;2023-04-03T17:17:03;10.10;99.90
20658;DHT22;10488;50.846;4.078;2023-04-03T17:19:29;10.20;99.90
20658;DHT22;10488;50.846;4.078;2023-04-03T17:21:56;10.20;99.90
20658;DHT22;10488;50.846;4.078;2023-04-03T17:24:22;10.30;99.90
20658;DHT22;10488;50.846;4.078;2023-04-03T17:26:48;10.20;99.90